Airfield :
LOGIN :

Register | Disclaimer

   EN    FR    IT 

 










Legend :    VFR   Marginal VFR   IFR   Intensive IFR   Very Intensive IFR
Visi :
Ceiling :
>= 8 km
>= 3000ft
5 to 8 km
1000 to 3000 ft
1500m to 5 km
500 to 1000 ft
800 to 1500m
200 to 500 ft
< 800m
< 200 ft
Symbols :   Thunderstorms  Fog  Heavy snow  Heavy precipitations  Wind > 20 kt
SIGMETs :     Misc.  Thunderstorms  Icing  Turbulence  Mountain Waves  Volcanic Ashes







- Airport Elevation : 1249 ft


ETSN - Neuburg AB

CURRENT METAR :
  • 182120Z 31001KT 0150 FG VV001 07/06 Q1016 RED

EXPIRED METARs :
  • 182114Z 00000KT 0150 FG VV001 06/06 Q1016 RED
  • 182020Z 00000KT 0200 FG 07/07 Q1016 RED
  • 181933Z 00000KT 0300 FG 07/07 Q1016 RED FCST CANCEL
  • 181922Z VRB01KT 0300 BCFG 08/07 Q1016 RED RED
  • 181906Z VRB01KT 1500 BCFG 08/07 Q1016 AMB AMB BECMG RED

TAF COR TAF ETSN
Valid from the 18 at 20:00 until the 19 at 05:00 UTC


181915Z 1820/1905 VRB02KT 1500 BCFG FEW250
BECMG 1820/1822 00000KT 0400 FG SKC BY ETGL
No reported NOTAMs for that airfield.



MET'MAP, your aeronautical weather chart ! - Copyright ORBIFLY December 2007 - Disclaimer

ORBIFLY MET'MAP TEAM :

Programming & Development : Alexandra Zaïnal
Concept & Development : Baudouin d'Aumeries
Co-Development & Prog : Marc-Olivier Méhu
Technical & hardware support : Manuel Goepfert

Contact : metmap@orbifly.com




SOURCES & CREDITS :

   NOAA